Elgin, Canada
Current Conditions -  °F | °C
As of 10:00 AM on Wednesday 22 Oct 2014 (Local Time) from CYBR Reporting Station
Overcast Overcast  
Wind Chill: 52°   Ceiling: 24000
Heat Index: 52°   Visibility: 15mi
Dew Point: 45°   Wind: 14mph
Humidity: 76%   Direction: 250°WSW
Pressure: 29.65"   Gusts: NA
Location:  49.43°N, 100.27°W
Report Text: CYBR 221500Z 25012KT 15SM FEW130 OVC240 11/07 A2965 RMK AC2CI6 SLP049 DENSITY ALT 1500FT
Loading
Personal Weather Stations






























Interactive Weather Map
Tropical Storm Tracking
New forecast layout! Learn more

10-Day Weather Forecast

Advertisements
Track Severe Weather on mobile